Time;durP1;ratioP1;P1;durP2;ratioP2;P2;SDS_P1;SDS_P2;PMS_P1;PMS_P2;Temp;Humidity;BMP_temperature;BMP_pressure;BME280_temperature;BME280_humidity;BME280_pressure;Samples;Min_cycle;Max_cycle;Signal;HPM_P1;HPM_P2
2023/04/21 00:01:25;;;;;;;47.60;23.08;;;;;;;7.09;100.00;101085.97;5000177;28;20417;-74
2023/04/21 00:03:51;;;;;;;46.53;21.42;;;;;;;7.08;100.00;101087.16;5002691;28;20794;-73
2023/04/21 00:06:21;;;;;;;49.17;22.85;;;;;;;7.06;100.00;101080.44;4993974;28;20133;-73
2023/04/21 00:08:49;;;;;;;42.35;21.42;;;;;;;7.04;100.00;101077.22;4996270;28;20088;-73
2023/04/21 00:11:15;;;;;;;49.83;25.10;;;;;;;7.02;100.00;101079.56;4989775;28;20133;-74
2023/04/21 00:13:42;;;;;;;46.35;22.98;;;;;;;7.00;100.00;101082.72;5000716;28;20132;-73
2023/04/21 00:16:08;;;;;;;49.50;24.55;;;;;;;7.01;100.00;101083.50;5001530;28;20053;-73
2023/04/21 00:18:35;;;;;;;49.45;23.48;;;;;;;7.03;100.00;101087.47;5004765;28;20054;-73
2023/04/21 00:21:02;;;;;;;50.95;25.13;;;;;;;7.02;100.00;101077.59;4994267;28;20057;-73
2023/04/21 00:23:28;;;;;;;50.33;25.67;;;;;;;7.05;100.00;101079.59;5000697;28;20049;-72
2023/04/21 00:25:55;;;;;;;49.83;24.67;;;;;;;7.11;100.00;101078.09;4989699;28;20049;-73
2023/04/21 00:28:22;;;;;;;51.90;25.02;;;;;;;7.14;100.00;101077.34;4995187;28;20437;-74
2023/04/21 00:30:49;;;;;;;55.75;27.70;;;;;;;7.12;100.00;101073.34;4999058;28;20076;-73
2023/04/21 00:33:15;;;;;;;45.58;24.50;;;;;;;7.12;100.00;101065.84;5002549;28;20049;-74
2023/04/21 00:35:42;;;;;;;47.10;21.88;;;;;;;7.14;100.00;101060.75;5007242;28;20513;-74
2023/04/21 00:38:08;;;;;;;51.88;24.70;;;;;;;7.14;100.00;101057.97;4997040;28;20057;-73
2023/04/21 00:40:35;;;;;;;51.90;24.25;;;;;;;7.14;100.00;101062.69;4996967;28;20049;-74
2023/04/21 00:43:05;;;;;;;49.88;25.02;;;;;;;7.11;100.00;101049.66;4995611;28;20054;-73
2023/04/21 00:45:32;;;;;;;52.05;25.02;;;;;;;7.14;100.00;101051.63;4990902;28;20057;-75
2023/04/21 00:47:58;;;;;;;52.20;23.63;;;;;;;7.14;100.00;101054.41;4997907;28;20042;-73
2023/04/21 00:50:25;;;;;;;51.22;24.05;;;;;;;7.13;100.00;101047.31;5003407;28;20165;-74
2023/04/21 00:52:52;;;;;;;52.20;25.48;;;;;;;7.12;100.00;101038.19;5005268;28;20424;-73
2023/04/21 00:55:19;;;;;;;49.70;25.13;;;;;;;7.12;100.00;101043.72;4998841;28;20092;-72
2023/04/21 00:57:45;;;;;;;54.83;25.25;;;;;;;7.17;100.00;101054.41;5006798;28;20050;-72
2023/04/21 01:00:13;;;;;;;53.97;26.75;;;;;;;7.16;100.00;101058.38;4998329;28;20045;-72
2023/04/21 01:02:40;;;;;;;55.13;26.85;;;;;;;7.17;100.00;101062.72;5005596;28;20053;-73
2023/04/21 01:05:10;;;;;;;57.63;26.38;;;;;;;7.14;100.00;101057.97;5003790;28;20138;-73
2023/04/21 01:07:37;;;;;;;53.38;25.70;;;;;;;7.13;100.00;101045.31;5004031;28;20100;-74
2023/04/21 01:10:05;;;;;;;52.13;25.58;;;;;;;7.13;100.00;101059.13;5003760;28;20064;-73
2023/04/21 01:12:31;;;;;;;51.20;24.77;;;;;;;7.14;100.00;101057.97;5001648;28;20053;-71
2023/04/21 01:14:58;;;;;;;51.92;25.85;;;;;;;7.14;100.00;101059.94;4999939;28;20049;-72
2023/04/21 01:17:25;;;;;;;50.65;23.75;;;;;;;7.07;100.00;101049.63;5006078;28;20504;-71
2023/04/21 01:19:55;;;;;;;48.53;24.13;;;;;;;7.11;100.00;101060.69;5013202;28;20046;-74
2023/04/21 01:22:21;;;;;;;51.50;23.02;;;;;;;7.04;100.00;101061.44;5006684;28;20064;-71
2023/04/21 01:24:48;;;;;;;48.05;23.92;;;;;;;6.99;100.00;101064.53;5005350;28;20054;-72
2023/04/21 01:27:20;;;;;;;51.50;25.17;;;;;;;6.95;100.00;101058.19;4993855;28;20058;-73
2023/04/21 01:29:49;;;;;;;50.75;24.33;;;;;;;6.98;100.00;101059.41;4998411;28;20092;-71
2023/04/21 01:32:21;;;;;;;50.40;25.08;;;;;;;6.99;100.00;101056.25;5007755;28;20081;-76
2023/04/21 01:34:49;;;;;;;55.63;26.27;;;;;;;6.99;100.00;101050.72;4995379;28;20105;-71
2023/04/21 01:37:17;;;;;;;55.13;26.77;;;;;;;7.03;100.00;101051.53;4993591;28;20536;-73
2023/04/21 01:39:50;;;;;;;55.15;27.90;;;;;;;7.02;100.00;101052.72;4992298;28;20058;-72
2023/04/21 01:42:17;;;;;;;51.58;25.35;;;;;;;7.00;100.00;101044.00;4994410;28;20157;-73
2023/04/21 01:44:45;;;;;;;53.67;22.83;;;;;;;6.96;100.00;101034.91;4997899;28;20061;-74
2023/04/21 01:47:12;;;;;;;55.63;26.48;;;;;;;7.03;100.00;101043.25;4991317;28;20152;-73
2023/04/21 01:49:39;;;;;;;50.83;23.58;;;;;;;7.03;100.00;101046.00;4999655;28;20141;-75
2023/04/21 01:52:05;;;;;;;52.35;23.42;;;;;;;7.01;100.00;101036.53;5000658;28;20042;-73
2023/04/21 01:54:32;;;;;;;52.22;25.85;;;;;;;7.00;100.00;101035.72;5007410;28;20065;-72
2023/04/21 01:56:58;;;;;;;56.10;26.98;;;;;;;7.00;100.00;101037.69;5007698;28;20046;-73
2023/04/21 01:59:33;;;;;;;54.72;26.50;;;;;;;6.99;100.00;101033.38;5007376;28;20061;-73
2023/04/21 02:02:00;;;;;;;50.45;24.90;;;;;;;7.02;100.00;101018.75;4989048;28;20046;-73
2023/04/21 02:04:26;;;;;;;55.50;26.13;;;;;;;7.03;100.00;101018.34;4995784;28;20058;-73
2023/04/21 02:06:56;;;;;;;53.28;26.73;;;;;;;6.99;100.00;101012.03;5006821;28;20420;-72
2023/04/21 02:09:22;;;;;;;52.53;26.80;;;;;;;7.01;100.00;101015.22;5006554;28;20050;-73
2023/04/21 02:11:49;;;;;;;56.08;27.27;;;;;;;6.97;100.00;101000.56;5006982;28;20050;-73
2023/04/21 02:14:15;;;;;;;52.53;26.02;;;;;;;6.95;100.00;101027.81;5005241;28;20050;-72
2023/04/21 02:16:42;;;;;;;47.92;24.25;;;;;;;6.89;100.00;101032.09;4991027;28;20531;-71
2023/04/21 02:19:09;;;;;;;48.83;22.48;;;;;;;6.73;100.00;101048.19;5001248;28;20054;-74
2023/04/21 02:21:35;;;;;;;50.75;25.88;;;;;;;6.76;100.00;101044.63;5001498;28;20065;-73
2023/04/21 02:24:07;;;;;;;57.25;28.35;;;;;;;6.76;100.00;101038.34;4999153;28;20050;-73
2023/04/21 02:26:34;;;;;;;62.42;29.13;;;;;;;6.80;100.00;101034.41;5007052;28;20053;-73
2023/04/21 02:29:01;;;;;;;60.72;30.05;;;;;;;6.80;100.00;101025.31;5007244;28;20046;-72
2023/04/21 02:31:28;;;;;;;59.67;28.67;;;;;;;6.86;100.00;101038.38;5004285;28;20054;-73
2023/04/21 02:33:55;;;;;;;56.10;26.95;;;;;;;6.91;100.00;101040.81;5006508;28;20050;-72
2023/04/21 02:36:21;;;;;;;62.00;31.05;;;;;;;6.91;100.00;101032.50;5005200;28;20050;-74
2023/04/21 02:38:48;;;;;;;57.97;29.50;;;;;;;6.93;100.00;101032.91;4997370;28;20054;-74
2023/04/21 02:41:20;;;;;;;61.03;29.00;;;;;;;6.98;100.00;101035.31;5007409;28;20046;-73
2023/04/21 02:43:49;;;;;;;60.17;29.88;;;;;;;6.98;100.00;101021.50;5002639;28;20060;-73
2023/04/21 02:46:16;;;;;;;59.60;29.13;;;;;;;6.98;100.00;101002.16;4987953;28;20775;-73
2023/04/21 02:48:42;;;;;;;59.08;28.38;;;;;;;6.99;100.00;100997.44;4989563;28;20137;-73
2023/04/21 02:51:12;;;;;;;56.85;27.35;;;;;;;6.98;100.00;101013.22;4988703;28;20050;-73
2023/04/21 02:53:50;;;;;;;63.20;30.33;;;;;;;6.96;100.00;101026.59;5003784;28;20057;-73
2023/04/21 02:56:17;;;;;;;61.85;30.38;;;;;;;6.94;100.00;101025.41;5001119;28;20056;-73
2023/04/21 02:58:44;;;;;;;66.68;32.30;;;;;;;6.93;100.00;101016.31;5008393;28;20428;-73
2023/04/21 03:01:13;;;;;;;65.72;29.65;;;;;;;6.94;100.00;101028.97;5010865;28;20076;-72
2023/04/21 03:03:40;;;;;;;62.15;29.92;;;;;;;6.84;100.00;101010.38;4999544;28;20160;-75
2023/04/21 03:06:07;;;;;;;62.75;30.65;;;;;;;6.92;100.00;101005.66;4995948;28;20049;-71
2023/04/21 03:08:33;;;;;;;55.13;27.67;;;;;;;6.91;100.00;100993.00;4998972;28;20520;-73
2023/04/21 03:11:00;;;;;;;64.55;29.98;;;;;;;6.94;100.00;101012.41;5007724;28;20053;-70
2023/04/21 03:13:26;;;;;;;63.05;29.73;;;;;;;6.95;100.00;101019.50;5002239;28;20054;-74
2023/04/21 03:15:53;;;;;;;65.22;32.35;;;;;;;6.95;100.00;100999.34;4990891;28;20050;-73
2023/04/21 03:18:22;;;;;;;64.78;32.45;;;;;;;6.94;100.00;101023.47;4990626;28;20062;-72
2023/04/21 03:20:49;;;;;;;63.58;31.63;;;;;;;6.92;100.00;100998.16;4990546;28;20506;-74
2023/04/21 03:23:16;;;;;;;63.17;32.65;;;;;;;6.96;100.00;101009.25;4989657;28;20050;-73
2023/04/21 03:25:42;;;;;;;69.47;32.80;;;;;;;6.98;100.00;101018.75;5001519;28;20060;-72
2023/04/21 03:28:09;;;;;;;64.80;33.92;;;;;;;6.96;100.00;101026.59;5004637;28;20050;-74
2023/04/21 03:30:35;;;;;;;68.53;33.78;;;;;;;6.98;100.00;101018.75;4990170;28;20092;-73
2023/04/21 03:33:03;;;;;;;64.47;33.50;;;;;;;7.00;100.00;101002.53;4992412;28;20547;-71
2023/04/21 03:35:30;;;;;;;67.38;34.00;;;;;;;7.01;100.00;101015.22;4990181;28;20086;-73
2023/04/21 03:37:56;;;;;;;67.43;32.72;;;;;;;7.02;100.00;101014.03;5001583;28;20058;-73
2023/04/21 03:40:23;;;;;;;65.93;33.35;;;;;;;7.04;100.00;101014.44;5009273;28;20056;-73
2023/04/21 03:42:49;;;;;;;65.97;32.83;;;;;;;7.04;100.00;101022.72;5000762;28;20129;-73
2023/04/21 03:45:18;;;;;;;70.65;35.08;;;;;;;7.06;100.00;101023.16;5001575;28;20699;-72
2023/04/21 03:47:44;;;;;;;69.90;33.20;;;;;;;7.08;100.00;101026.34;4997982;28;20054;-71
2023/04/21 03:50:11;;;;;;;73.28;36.08;;;;;;;7.04;100.00;101006.16;4989690;28;20186;-73
2023/04/21 03:52:38;;;;;;;72.43;35.45;;;;;;;7.02;100.00;101002.97;4995345;28;20045;-74
2023/04/21 03:55:10;;;;;;;72.68;35.25;;;;;;;7.04;100.00;101014.44;4996608;28;20049;-71
2023/04/21 03:57:39;;;;;;;76.40;36.25;;;;;;;7.03;100.00;101001.78;4998405;28;20058;-73
2023/04/21 04:00:08;;;;;;;71.20;35.50;;;;;;;7.03;100.00;101009.28;5007778;28;20060;-73
2023/04/21 04:02:37;;;;;;;76.28;36.55;;;;;;;7.05;100.00;101013.25;5005164;28;20054;-72
2023/04/21 04:05:05;;;;;;;74.53;35.60;;;;;;;7.06;100.00;101017.63;4997879;28;20505;-73
2023/04/21 04:07:32;;;;;;;70.97;36.15;;;;;;;7.08;100.00;101022.75;4994396;28;20415;-74
2023/04/21 04:09:59;;;;;;;67.03;34.13;;;;;;;7.09;100.00;101021.56;4998595;28;20052;-71
2023/04/21 04:12:26;;;;;;;71.80;37.08;;;;;;;7.09;100.00;101025.16;4992639;28;20056;-73
2023/04/21 04:14:52;;;;;;;100.03;40.17;;;;;;;7.07;100.00;101012.91;4998449;28;20050;-73
2023/04/21 04:17:19;;;;;;;75.28;37.00;;;;;;;7.09;100.00;101016.84;4989940;28;20509;-71
2023/04/21 04:19:45;;;;;;;71.30;33.92;;;;;;;7.10;100.00;101006.59;4997577;28;20050;-73
2023/04/21 04:22:12;;;;;;;66.25;31.92;;;;;;;7.12;100.00;101005.03;4989738;28;20057;-72
2023/04/21 04:24:38;;;;;;;69.00;31.65;;;;;;;7.12;100.00;101016.09;4989159;28;20333;-72
2023/04/21 04:27:05;;;;;;;72.93;34.55;;;;;;;7.13;100.00;101028.72;5009008;28;20057;-73
2023/04/21 04:29:32;;;;;;;65.07;34.50;;;;;;;7.10;100.00;101012.91;5000052;28;20058;-70
2023/04/21 04:32:00;;;;;;;70.45;34.90;;;;;;;7.11;100.00;101005.41;5002116;28;20045;-72
2023/04/21 04:34:27;;;;;;;71.22;35.03;;;;;;;7.11;100.00;101008.97;4997202;28;20061;-74
2023/04/21 04:36:57;;;;;;;69.43;36.08;;;;;;;7.14;100.00;101012.94;5000034;28;20534;-73
2023/04/21 04:39:24;;;;;;;72.68;38.00;;;;;;;7.17;100.00;101003.88;4992802;28;20137;-72
2023/04/21 04:41:51;;;;;;;70.25;34.75;;;;;;;7.17;100.00;101012.94;4999471;28;20053;-72
2023/04/21 04:44:18;;;;;;;74.95;36.50;;;;;;;7.17;100.00;101018.47;5002362;28;20050;-73
2023/04/21 04:46:44;;;;;;;80.57;38.17;;;;;;;7.16;100.00;101016.13;5004085;28;20133;-72
2023/04/21 04:49:11;;;;;;;73.13;36.40;;;;;;;7.18;100.00;101022.84;4995842;28;20050;-73
2023/04/21 04:51:38;;;;;;;74.07;36.30;;;;;;;7.18;100.00;101009.00;4999730;28;20066;-73
2023/04/21 04:54:04;;;;;;;77.30;37.53;;;;;;;7.22;100.00;101012.59;4988618;28;20501;-72
2023/04/21 04:56:31;;;;;;;72.85;37.30;;;;;;;7.23;100.00;101022.44;4987562;28;20187;-75
2023/04/21 04:58:58;;;;;;;71.63;37.63;;;;;;;7.25;100.00;101009.03;4989071;28;20050;-73
2023/04/21 05:01:28;;;;;;;74.72;36.80;;;;;;;7.25;100.00;101019.31;5003517;28;20061;-73
2023/04/21 05:03:56;;;;;;;72.38;34.50;;;;;;;7.29;100.00;101020.09;5006262;28;20053;-72
2023/04/21 05:06:23;;;;;;;68.35;33.58;;;;;;;7.28;100.00;101019.34;4998738;28;20424;-73
2023/04/21 05:08:49;;;;;;;75.63;36.97;;;;;;;7.29;100.00;101025.63;4991838;28;20883;-73
2023/04/21 05:11:16;;;;;;;66.10;33.08;;;;;;;7.26;100.00;101021.69;4992456;28;20046;-73
2023/04/21 05:13:42;;;;;;;75.97;36.58;;;;;;;7.31;100.00;101029.63;4995355;28;20041;-72
2023/04/21 05:16:10;;;;;;;68.55;34.67;;;;;;;7.34;100.00;101022.53;4997394;28;20072;-71
2023/04/21 05:18:36;;;;;;;77.38;36.58;;;;;;;7.35;100.00;101024.91;4994031;28;20084;-73
2023/04/21 05:21:03;;;;;;;73.95;34.20;;;;;;;7.39;100.00;101027.66;4995335;28;20065;-73
2023/04/21 05:23:30;;;;;;;68.53;32.92;;;;;;;7.40;100.00;101015.44;5000083;28;20145;-72
2023/04/21 05:25:56;;;;;;;65.53;31.75;;;;;;;7.39;100.00;101022.94;4988254;28;20523;-75
2023/04/21 05:28:23;;;;;;;67.50;34.22;;;;;;;7.38;100.00;101021.34;4988249;28;20054;-73
2023/04/21 05:30:49;;;;;;;63.83;31.92;;;;;;;7.41;100.00;101033.63;5001015;28;20568;-72
2023/04/21 05:33:19;;;;;;;70.47;34.90;;;;;;;7.42;100.00;101030.47;5000904;28;20054;-73
2023/04/21 05:35:45;;;;;;;77.03;35.92;;;;;;;7.41;100.00;101028.88;5005575;28;20402;-73
2023/04/21 05:38:14;;;;;;;75.75;37.22;;;;;;;7.45;100.00;101026.91;5000637;28;20046;-73
2023/04/21 05:40:41;;;;;;;71.43;35.83;;;;;;;7.49;100.00;101029.69;4995633;28;20054;-74
2023/04/21 05:43:07;;;;;;;72.50;33.10;;;;;;;7.52;100.00;101034.44;4995012;28;20053;-74
2023/04/21 05:45:38;;;;;;;67.85;35.17;;;;;;;7.56;100.00;101031.72;4998506;28;20123;-71
2023/04/21 05:48:04;;;;;;;72.57;36.17;;;;;;;7.56;100.00;101038.00;4997174;28;20180;-71
2023/04/21 05:50:34;;;;;;;68.32;33.75;;;;;;;7.60;100.00;101040.81;5001185;28;20129;-74
2023/04/21 05:53:01;;;;;;;67.05;32.83;;;;;;;7.60;100.00;101036.06;5004837;28;20131;-72
2023/04/21 05:55:27;;;;;;;65.07;33.83;;;;;;;7.64;100.00;101039.66;5000457;28;20054;-73
2023/04/21 05:57:54;;;;;;;66.75;35.13;;;;;;;7.65;100.00;101046.75;4997826;28;20095;-73
2023/04/21 06:00:20;;;;;;;71.88;36.60;;;;;;;7.66;100.00;101045.56;5000473;28;20050;-74
2023/04/21 06:02:47;;;;;;;68.07;36.35;;;;;;;7.67;100.00;101036.09;5004442;28;20042;-72
2023/04/21 06:05:13;;;;;;;68.80;36.80;;;;;;;7.71;100.00;101042.44;5000916;28;20485;-72
2023/04/21 06:07:40;;;;;;;71.05;34.60;;;;;;;7.75;100.00;101042.44;5004590;28;20681;-73
2023/04/21 06:10:07;;;;;;;69.90;37.38;;;;;;;7.75;100.00;101029.41;4999815;28;20145;-73
2023/04/21 06:12:33;;;;;;;69.47;35.85;;;;;;;7.76;100.00;101030.97;5005659;28;20045;-72
2023/04/21 06:15:00;;;;;;;65.32;34.20;;;;;;;7.82;100.00;101039.69;5001322;28;20050;-73
2023/04/21 06:17:26;;;;;;;70.15;36.13;;;;;;;7.87;100.00;101033.78;5005692;28;20535;-72
2023/04/21 06:19:54;;;;;;;69.90;36.63;;;;;;;7.88;100.00;101024.28;4991426;28;20054;-75
2023/04/21 06:22:22;;;;;;;73.50;37.92;;;;;;;7.91;100.00;101023.50;5005776;28;20052;-75
2023/04/21 06:24:49;;;;;;;65.65;33.00;;;;;;;7.94;100.00;101022.72;5007570;28;20056;-75
2023/04/21 06:27:15;;;;;;;66.20;34.05;;;;;;;8.03;100.00;101025.91;5002842;28;20054;-74
2023/04/21 06:29:42;;;;;;;63.78;35.45;;;;;;;8.07;100.00;101032.25;4987826;28;20054;-75
2023/04/21 06:32:10;;;;;;;64.80;33.80;;;;;;;8.11;100.00;101028.31;4993669;28;20049;-73
2023/04/21 06:34:37;;;;;;;67.45;35.30;;;;;;;8.14;100.00;101026.72;5007335;28;20068;-76
2023/04/21 06:37:04;;;;;;;65.13;33.53;;;;;;;8.18;100.00;101021.97;5003235;28;20057;-74
2023/04/21 06:39:30;;;;;;;62.33;34.80;;;;;;;8.16;100.00;101022.38;4994218;28;20452;-74
2023/04/21 06:41:57;;;;;;;62.25;33.03;;;;;;;8.24;100.00;101034.25;5002220;28;20045;-74
2023/04/21 06:44:23;;;;;;;67.05;34.20;;;;;;;8.29;100.00;101026.34;5001966;28;20081;-73
2023/04/21 06:46:50;;;;;;;62.47;35.00;;;;;;;8.34;100.00;101034.25;5005348;28;20050;-72
2023/04/21 06:49:17;;;;;;;62.63;35.40;;;;;;;8.40;100.00;101026.31;5009317;28;20715;-72
2023/04/21 06:51:44;;;;;;;68.05;36.97;;;;;;;8.46;100.00;101017.25;4993961;28;20045;-73
2023/04/21 06:54:10;;;;;;;66.28;35.83;;;;;;;8.54;100.00;101020.81;5003258;28;20054;-72
2023/04/21 06:56:37;;;;;;;66.05;36.95;;;;;;;8.61;100.00;101024.38;5007877;28;20050;-73
2023/04/21 06:59:03;;;;;;;60.28;33.95;;;;;;;8.70;100.00;101026.75;5009249;28;20129;-74
2023/04/21 07:01:30;;;;;;;65.68;36.17;;;;;;;8.75;100.00;101020.81;4994268;28;20424;-72
2023/04/21 07:03:57;;;;;;;66.05;35.70;;;;;;;8.85;100.00;101028.34;4991105;28;20133;-74
2023/04/21 07:06:24;;;;;;;66.78;35.20;;;;;;;8.93;100.00;101030.69;4993269;28;20236;-75
2023/04/21 07:08:50;;;;;;;64.90;34.70;;;;;;;8.96;100.00;101023.56;5008026;28;20516;-73
2023/04/21 07:11:17;;;;;;;63.20;35.30;;;;;;;9.01;100.00;101026.72;5002291;28;20072;-73
2023/04/21 07:13:43;;;;;;;63.33;33.58;;;;;;;9.14;100.00;101029.84;5007829;28;20056;-74
2023/04/21 07:16:10;;;;;;;67.47;34.67;;;;;;;9.19;100.00;101032.22;4996177;28;20054;-74
2023/04/21 07:18:39;;;;;;;65.43;35.35;;;;;;;9.26;100.00;101026.66;5004057;28;20480;-72
2023/04/21 07:21:05;;;;;;;76.10;36.13;;;;;;;9.30;100.00;101019.13;4990243;28;20486;-72
2023/04/21 07:23:32;;;;;;;63.17;33.33;;;;;;;9.32;100.00;101022.28;5002362;28;20640;-73
2023/04/21 07:25:58;;;;;;;60.97;33.53;;;;;;;9.38;100.00;101015.09;4998179;28;20053;-74
2023/04/21 07:28:25;;;;;;;60.58;32.70;;;;;;;9.44;100.00;101016.28;5000710;28;20086;-71
2023/04/21 07:30:52;;;;;;;54.90;31.33;;;;;;;9.50;100.00;101023.00;5005964;28;20054;-73
2023/04/21 07:33:18;;;;;;;56.35;31.30;;;;;;;9.58;100.00;101021.78;4997889;28;20050;-73
2023/04/21 07:35:45;;;;;;;59.22;32.72;;;;;;;9.64;100.00;101009.84;4995912;28;20064;-72
2023/04/21 07:38:11;;;;;;;52.58;29.17;;;;;;;9.74;100.00;101013.75;4994566;28;20073;-73
2023/04/21 07:40:38;;;;;;;56.45;31.23;;;;;;;9.79;100.00;101000.25;4997077;28;20077;-73
2023/04/21 07:43:04;;;;;;;55.92;30.35;;;;;;;9.86;100.00;101010.53;5001721;28;20062;-74
2023/04/21 07:45:31;;;;;;;51.92;29.60;;;;;;;9.92;100.00;101014.44;4999410;28;20054;-75
2023/04/21 07:47:58;;;;;;;49.95;28.05;;;;;;;9.92;100.00;101012.47;4993051;28;20428;-73
2023/04/21 07:50:24;;;;;;;54.80;31.08;;;;;;;9.96;100.00;101018.78;4989156;28;20046;-72
2023/04/21 07:52:51;;;;;;;50.80;29.73;;;;;;;9.95;100.00;101010.88;5000308;28;20046;-74
2023/04/21 07:55:20;;;;;;;51.53;31.58;;;;;;;9.95;100.00;101016.41;4992274;28;20089;-72
2023/04/21 07:57:46;;;;;;;55.85;31.17;;;;;;;10.02;100.00;101010.84;4999544;28;20056;-73
2023/04/21 08:00:14;;;;;;;58.13;31.48;;;;;;;10.12;100.00;101014.78;4993486;28;20056;-73
2023/04/21 08:02:40;;;;;;;55.30;32.05;;;;;;;10.18;100.00;101013.13;5009726;28;20046;-73
2023/04/21 08:05:07;;;;;;;54.53;33.00;;;;;;;10.23;100.00;101007.16;5003100;28;20041;-75
2023/04/21 08:07:34;;;;;;;53.05;29.52;;;;;;;10.27;100.00;101003.16;5003431;28;20045;-73
2023/04/21 08:10:01;;;;;;;52.60;29.88;;;;;;;10.32;100.00;101013.81;4999878;28;20470;-73
2023/04/21 08:12:28;;;;;;;52.40;30.73;;;;;;;10.36;100.00;101003.47;5002318;28;20050;-74
2023/04/21 08:14:54;;;;;;;54.20;31.15;;;;;;;10.35;100.00;101001.09;4997286;28;20049;-72
2023/04/21 08:17:21;;;;;;;51.97;30.60;;;;;;;10.38;100.00;101001.06;4992501;28;20100;-72
2023/04/21 08:19:47;;;;;;;54.42;32.15;;;;;;;10.35;100.00;100993.53;4988735;28;20060;-73
2023/04/21 08:22:14;;;;;;;49.97;27.30;;;;;;;10.40;100.00;101000.66;5001556;28;20046;-72
2023/04/21 08:24:40;;;;;;;49.78;29.70;;;;;;;10.32;100.00;101005.47;5004847;28;20050;-71
2023/04/21 08:27:07;;;;;;;49.40;27.92;;;;;;;10.32;100.00;100999.91;5000883;28;20061;-73
2023/04/21 08:29:34;;;;;;;50.67;30.15;;;;;;;10.31;100.00;101003.09;4994984;28;20054;-74
2023/04/21 08:32:00;;;;;;;52.08;29.80;;;;;;;10.29;100.00;101003.50;4996495;28;20457;-74
2023/04/21 08:34:27;;;;;;;55.28;31.60;;;;;;;10.35;100.00;101007.44;5001283;28;20902;-73
2023/04/21 08:36:54;;;;;;;54.17;30.42;;;;;;;10.33;100.00;101012.59;5003520;28;20054;-71
2023/04/21 08:39:21;;;;;;;53.88;27.08;;;;;;;10.36;100.00;101011.78;5001202;28;20098;-73
2023/04/21 08:41:49;;;;;;;53.40;30.98;;;;;;;10.45;100.00;101014.91;4992279;28;20097;-72
2023/04/21 08:44:18;;;;;;;51.80;29.65;;;;;;;10.49;100.00;101017.66;5000166;28;20054;-72
2023/04/21 08:46:51;;;;;;;50.15;30.20;;;;;;;10.50;100.00;101022.78;5002957;28;20133;-74
2023/04/21 08:49:20;;;;;;;54.85;31.45;;;;;;;10.51;100.00;101024.41;4994106;28;20105;-71
2023/04/21 08:51:47;;;;;;;54.08;30.52;;;;;;;10.55;100.00;101024.34;5000260;28;20133;-75
2023/04/21 08:54:13;;;;;;;52.00;30.67;;;;;;;10.56;100.00;101020.41;5002017;28;20054;-72
2023/04/21 08:56:40;;;;;;;57.30;31.80;;;;;;;10.54;100.00;101020.81;5002680;28;20578;-72
2023/04/21 08:59:06;;;;;;;56.60;31.45;;;;;;;10.56;100.00;101009.28;4993109;28;20149;-74
2023/04/21 09:02:09;;;;;;;52.60;28.38;;;;;;;10.61;100.00;101015.19;4995603;28;20164;-74
2023/04/21 09:04:54;;;;;;;53.67;29.73;;;;;;;10.63;100.00;101026.66;4992561;28;20055;-74
2023/04/21 09:07:36;;;;;;;54.35;30.83;;;;;;;10.66;100.00;101022.25;4983297;28;20111;-73
2023/04/21 09:10:04;;;;;;;50.80;30.08;;;;;;;10.70;100.00;101026.59;4982270;28;20065;-72
2023/04/21 09:12:30;;;;;;;51.50;30.50;;;;;;;10.78;100.00;101019.00;4983403;28;20397;-73
2023/04/21 09:14:57;;;;;;;56.90;31.95;;;;;;;10.78;100.00;101021.78;4982579;28;20069;-73
2023/04/21 09:17:32;;;;;;;55.38;30.08;;;;;;;10.78;100.00;101017.00;4985918;28;20054;-73
2023/04/21 09:20:12;;;;;;;49.67;29.83;;;;;;;10.83;100.00;101019.31;4983132;28;20145;-73
2023/04/21 09:22:38;;;;;;;46.50;27.88;;;;;;;10.89;100.00;101017.69;4981844;28;20042;-72
2023/04/21 09:25:05;;;;;;;52.08;31.40;;;;;;;10.94;100.00;101016.47;4980845;28;20050;-73
2023/04/21 09:27:35;;;;;;;46.25;29.10;;;;;;;11.01;100.00;101021.94;4982745;28;22196;-72
2023/04/21 09:30:06;;;;;;;51.38;29.35;;;;;;;11.02;100.00;101010.41;4981940;28;20077;-72
2023/04/21 09:32:39;;;;;;;52.30;28.80;;;;;;;11.07;100.00;101011.97;4996925;28;20050;-72
2023/04/21 09:35:10;;;;;;;49.60;30.15;;;;;;;11.12;100.00;101015.06;4997234;28;20080;-74
2023/04/21 09:37:38;;;;;;;51.45;29.70;;;;;;;11.17;100.00;101017.38;4995439;28;20516;-74
2023/04/21 09:40:05;;;;;;;50.80;28.90;;;;;;;11.18;100.00;101012.63;5002138;28;20061;-74
2023/04/21 09:42:33;;;;;;;48.05;28.13;;;;;;;11.25;100.00;101015.34;4999317;28;20498;-75
2023/04/21 09:45:04;;;;;;;52.35;30.13;;;;;;;11.29;100.00;101025.25;5004729;28;20054;-72
2023/04/21 09:47:39;;;;;;;49.92;29.40;;;;;;;11.32;100.00;101009.69;4996266;28;20089;-74
2023/04/21 09:50:11;;;;;;;52.00;29.38;;;;;;;11.39;100.00;101013.19;4997062;28;20112;-73
2023/04/21 09:52:39;;;;;;;49.20;28.23;;;;;;;11.45;100.00;101022.66;4995683;28;20064;-74
2023/04/21 09:55:17;;;;;;;48.95;26.98;;;;;;;11.45;100.00;101005.94;4994024;28;20599;-74
2023/04/21 09:57:47;;;;;;;51.92;28.35;;;;;;;11.47;100.00;101009.13;4989791;28;20054;-74
2023/04/21 10:00:14;;;;;;;50.13;29.30;;;;;;;11.49;100.00;101008.69;4991427;28;20052;-75
2023/04/21 10:02:48;;;;;;;49.53;29.75;;;;;;;11.52;100.00;100999.53;4995836;28;20077;-74
2023/04/21 10:05:15;;;;;;;45.42;27.75;;;;;;;11.61;100.00;101008.94;4989117;28;20046;-74
2023/04/21 10:07:44;;;;;;;46.70;25.88;;;;;;;11.69;100.00;101006.84;4994189;28;20041;-73
2023/04/21 10:10:19;;;;;;;47.75;28.13;;;;;;;11.70;100.00;100995.28;4997014;28;20050;-74
2023/04/21 10:12:46;;;;;;;46.47;26.90;;;;;;;11.79;100.00;100992.00;4998310;28;20057;-74
2023/04/21 10:15:32;;;;;;;43.88;26.45;;;;;;;11.88;100.00;100989.47;5003542;28;20093;-73
2023/04/21 10:18:12;;;;;;;52.42;28.30;;;;;;;11.91;100.00;100992.22;5010732;28;20045;-74
2023/04/21 10:21:01;;;;;;;48.20;28.02;;;;;;;11.93;100.00;100980.66;5010341;28;20049;-74
2023/04/21 10:23:41;;;;;;;46.10;26.65;;;;;;;12.01;100.00;100990.47;4991931;28;20093;-73
2023/04/21 10:26:15;;;;;;;49.85;26.17;;;;;;;12.06;100.00;100971.28;4996100;28;20046;-73
2023/04/21 10:28:47;;;;;;;44.13;26.05;;;;;;;12.12;100.00;100961.22;4996563;28;20509;-74
2023/04/21 10:31:52;;;;;;;45.72;25.95;;;;;;;12.20;100.00;100961.91;5009612;28;20050;-74
2023/04/21 10:34:29;;;;;;;42.78;26.13;;;;;;;12.31;100.00;100962.53;5003313;28;20042;-74
2023/04/21 10:36:56;;;;;;;44.42;25.80;;;;;;;12.37;100.00;100972.81;5002873;28;20041;-72
2023/04/21 10:39:43;;;;;;;46.05;26.13;;;;;;;12.41;100.00;100967.97;4997615;28;20056;-74
2023/04/21 10:42:12;;;;;;;49.47;26.80;;;;;;;12.51;100.00;100966.19;4999988;28;20060;-73
2023/04/21 10:44:42;;;;;;;50.85;28.20;;;;;;;12.57;100.00;100974.88;4999628;28;20054;-73
2023/04/21 10:47:09;;;;;;;44.47;27.63;;;;;;;12.72;100.00;100984.56;5020930;28;20050;-72
2023/04/21 10:49:38;;;;;;;46.38;26.02;;;;;;;12.83;100.00;100982.38;5001574;28;20058;-74
2023/04/21 10:52:06;;;;;;;41.10;26.67;;;;;;;12.86;100.00;100971.13;4999470;28;20169;-76
2023/04/21 10:54:44;;;;;;;46.70;26.20;;;;;;;12.84;100.00;100970.00;4999773;28;20152;-74
2023/04/21 10:57:13;;;;;;;46.70;26.52;;;;;;;12.88;100.00;100963.13;4992645;28;20058;-73
2023/04/21 10:59:41;;;;;;;47.20;26.58;;;;;;;12.91;100.00;100967.06;5006850;28;20457;-74
2023/04/21 11:02:10;;;;;;;42.33;25.40;;;;;;;12.95;100.00;100962.19;4997784;28;20049;-74
2023/04/21 11:04:44;;;;;;;42.38;25.42;;;;;;;12.97;100.00;100960.56;5005062;28;20058;-74
2023/04/21 11:07:18;;;;;;;46.95;26.73;;;;;;;12.87;100.00;100972.72;4994789;28;20517;-76
2023/04/21 11:09:46;;;;;;;47.83;27.13;;;;;;;12.88;100.00;100957.56;5008118;28;20078;-73
2023/04/21 11:12:16;;;;;;;41.65;25.48;;;;;;;12.89;100.00;100956.31;5002283;28;20136;-75